Wawa, Canada
Current Conditions -  °F | °C
As of 1:00 PM on Friday 31 Oct 2014 (Local Time) from CYXZ Reporting Station
Broken Clouds Broken Clouds  
Wind Chill: 20°   Ceiling: 1800
Heat Index: 30°   Visibility: 15mi
Dew Point: 18°   Wind: 13mph
Humidity: 60%   Direction: 360°N
Pressure: 30.34"   Gusts: 21mph
Location:  48°N, 84.82°W
Report Text: CYXZ 311700Z 36011G18KT 15SM BKN018 M01/M08 A3034 RMK SC5 SLP289
Loading
Personal Weather Stations






























Interactive Weather Map
Tropical Storm Tracking
New forecast layout! Learn more

10-Day Weather Forecast

Advertisements
Track Severe Weather on mobile